createdAt,value
2023-04-02T00:00:15.964Z,7.71
2023-04-02T00:02:43.018Z,7.71
2023-04-02T00:05:10.107Z,7.70
2023-04-02T00:07:37.123Z,7.68
2023-04-02T00:10:04.203Z,7.68
2023-04-02T00:12:31.235Z,7.67
2023-04-02T00:14:58.268Z,7.67
2023-04-02T00:17:25.320Z,7.65
2023-04-02T00:19:52.409Z,7.64
2023-04-02T00:22:19.476Z,7.63
2023-04-02T00:24:46.533Z,7.63
2023-04-02T00:27:13.617Z,7.62
2023-04-02T00:29:40.650Z,7.61
2023-04-02T00:32:07.740Z,7.61
2023-04-02T00:34:41.123Z,7.59
2023-04-02T00:37:08.204Z,7.59
2023-04-02T00:39:35.264Z,7.59
2023-04-02T00:42:02.282Z,7.59
2023-04-02T00:44:29.326Z,7.58
2023-04-02T00:46:56.382Z,7.59
2023-04-02T00:49:23.885Z,7.59
2023-04-02T00:51:52.415Z,7.60
2023-04-02T00:54:19.500Z,7.59
2023-04-02T00:56:46.757Z,7.59
2023-04-02T00:59:13.871Z,7.60
2023-04-02T01:01:40.932Z,7.60
2023-04-02T01:04:08.062Z,7.59
2023-04-02T01:06:35.250Z,7.59
2023-04-02T01:09:02.369Z,7.58
2023-04-02T01:11:29.454Z,7.59
2023-04-02T01:13:56.471Z,7.59
2023-04-02T01:16:26.767Z,7.59
2023-04-02T01:18:53.902Z,7.60
2023-04-02T01:21:28.259Z,7.61
2023-04-02T01:26:40.125Z,7.59
2023-04-02T01:29:08.161Z,7.59
2023-04-02T01:31:35.222Z,7.59
2023-04-02T01:34:02.301Z,7.60
2023-04-02T01:36:29.351Z,7.59
2023-04-02T01:38:56.417Z,7.59
2023-04-02T01:41:23.454Z,7.59
2023-04-02T01:43:50.520Z,7.59
2023-04-02T01:46:17.558Z,7.60
2023-04-02T01:48:44.636Z,7.61
2023-04-02T01:51:11.650Z,7.63
2023-04-02T01:53:38.815Z,7.64
2023-04-02T01:56:15.252Z,7.66
2023-04-02T01:58:45.570Z,7.66
2023-04-02T02:01:12.650Z,7.68
2023-04-02T02:03:40.178Z,7.68
2023-04-02T02:06:07.194Z,7.68
2023-04-02T02:08:34.233Z,7.68
2023-04-02T02:11:01.526Z,7.69
2023-04-02T02:13:28.617Z,7.69
2023-04-02T02:15:55.925Z,7.67
2023-04-02T02:18:22.987Z,7.67
2023-04-02T02:20:50.006Z,7.68
2023-04-02T02:23:17.040Z,7.67
2023-04-02T02:25:44.077Z,7.67
2023-04-02T02:28:11.118Z,7.67
2023-04-02T02:30:38.188Z,7.67
2023-04-02T02:33:05.282Z,7.67
2023-04-02T02:35:32.475Z,7.67
2023-04-02T02:37:59.567Z,7.67
2023-04-02T02:40:26.592Z,7.66
2023-04-02T02:42:53.697Z,7.65
2023-04-02T02:45:20.804Z,7.65
2023-04-02T02:47:47.871Z,7.65
2023-04-02T02:50:14.981Z,7.66
2023-04-02T02:52:42.071Z,7.66
2023-04-02T02:55:10.463Z,7.66
2023-04-02T02:57:40.250Z,7.64
2023-04-02T03:00:07.261Z,7.62
2023-04-02T03:02:35.428Z,7.61
2023-04-02T03:05:02.564Z,7.57
2023-04-02T03:07:29.670Z,7.53
2023-04-02T03:09:57.252Z,7.54
2023-04-02T03:12:24.346Z,7.53
2023-04-02T03:17:36.967Z,7.52
2023-04-02T03:20:04.034Z,7.52
2023-04-02T03:22:31.159Z,7.50
2023-04-02T03:24:58.265Z,7.51
2023-04-02T03:27:25.316Z,7.51
2023-04-02T03:29:52.388Z,7.49
2023-04-02T03:32:27.148Z,7.49
2023-04-02T03:34:54.205Z,7.50
2023-04-02T03:37:21.290Z,7.50
2023-04-02T03:39:54.512Z,7.48
2023-04-02T03:42:21.606Z,7.46
2023-04-02T03:44:48.766Z,7.46
2023-04-02T03:47:20.323Z,7.47
2023-04-02T03:49:47.732Z,7.47
2023-04-02T03:52:14.992Z,7.48
2023-04-02T03:54:53.877Z,7.49
2023-04-02T04:00:11.714Z,7.50
2023-04-02T04:02:43.334Z,7.49
2023-04-02T04:05:10.709Z,7.49
2023-04-02T04:07:37.821Z,7.49
2023-04-02T04:10:12.302Z,7.47
2023-04-02T04:12:39.366Z,7.46
2023-04-02T04:15:06.744Z,7.44
2023-04-02T04:17:33.769Z,7.42
2023-04-02T04:20:00.843Z,7.41
2023-04-02T04:22:27.829Z,7.40
2023-04-02T04:24:54.934Z,7.38
2023-04-02T04:27:21.965Z,7.36
2023-04-02T04:29:49.053Z,7.37
2023-04-02T04:32:16.143Z,7.37
2023-04-02T04:34:43.277Z,7.36
2023-04-02T04:37:10.313Z,7.35
2023-04-02T04:39:37.379Z,7.34
2023-04-02T04:42:04.643Z,7.33
2023-04-02T04:44:31.727Z,7.32
2023-04-02T04:46:58.951Z,7.31
2023-04-02T04:49:26.001Z,7.31
2023-04-02T04:51:55.765Z,7.32
2023-04-02T04:54:25.299Z,7.31
2023-04-02T04:56:52.332Z,7.33
2023-04-02T04:59:19.406Z,7.33
2023-04-02T05:01:46.434Z,7.35
2023-04-02T05:04:13.538Z,7.37
2023-04-02T05:06:42.858Z,7.38
2023-04-02T05:09:09.902Z,7.39
2023-04-02T05:11:36.941Z,7.39
2023-04-02T05:14:03.974Z,7.38
2023-04-02T05:16:31.037Z,7.38
2023-04-02T05:18:58.198Z,7.38
2023-04-02T05:21:25.234Z,7.38
2023-04-02T05:23:52.258Z,7.39
2023-04-02T05:26:19.273Z,7.39
2023-04-02T05:28:46.275Z,7.37
2023-04-02T05:31:13.323Z,7.38
2023-04-02T05:33:40.466Z,7.36
2023-04-02T05:36:07.609Z,7.35
2023-04-02T05:38:34.717Z,7.35
2023-04-02T05:41:01.791Z,7.33
2023-04-02T05:43:28.817Z,7.35
2023-04-02T05:45:55.941Z,7.35
2023-04-02T05:48:22.970Z,7.34
2023-04-02T05:50:49.979Z,7.34
2023-04-02T05:53:16.996Z,7.33
2023-04-02T05:55:45.392Z,7.33
2023-04-02T06:00:42.332Z,7.34
2023-04-02T06:03:09.434Z,7.36
2023-04-02T06:05:36.786Z,7.37
2023-04-02T06:08:04.000Z,7.36
2023-04-02T06:10:31.013Z,7.37
2023-04-02T06:12:58.086Z,7.37
2023-04-02T06:15:25.127Z,7.36
2023-04-02T06:17:52.192Z,7.36
2023-04-02T06:20:19.351Z,7.35
2023-04-02T06:22:46.457Z,7.37
2023-04-02T06:25:13.766Z,7.36
2023-04-02T06:27:40.842Z,7.37
2023-04-02T06:30:07.891Z,7.39
2023-04-02T06:32:34.933Z,7.39
2023-04-02T06:35:01.981Z,7.41
2023-04-02T06:37:28.961Z,7.42
2023-04-02T06:39:55.999Z,7.43
2023-04-02T06:42:23.014Z,7.44
2023-04-02T06:44:50.090Z,7.46
2023-04-02T06:47:17.094Z,7.48
2023-04-02T06:49:44.188Z,7.49
2023-04-02T06:52:11.223Z,7.49
2023-04-02T06:54:38.251Z,7.50
2023-04-02T06:57:05.291Z,7.51
2023-04-02T06:59:32.367Z,7.53
2023-04-02T07:01:59.406Z,7.53
2023-04-02T07:04:26.735Z,7.55
2023-04-02T07:06:53.795Z,7.56
2023-04-02T07:09:20.872Z,7.59
2023-04-02T07:11:47.960Z,7.60
2023-04-02T07:14:14.987Z,7.61
2023-04-02T07:16:42.051Z,7.62
2023-04-02T07:19:09.116Z,7.64
2023-04-02T07:21:36.234Z,7.65
2023-04-02T07:24:03.334Z,7.65
2023-04-02T07:26:30.657Z,7.67
2023-04-02T07:28:58.002Z,7.69
2023-04-02T07:31:25.073Z,7.71
2023-04-02T07:33:52.139Z,7.72
2023-04-02T07:36:19.194Z,7.73
2023-04-02T07:38:46.275Z,7.77
2023-04-02T07:41:13.317Z,7.81
2023-04-02T07:43:40.336Z,7.83
2023-04-02T07:46:07.527Z,7.87
2023-04-02T07:48:34.519Z,7.91
2023-04-02T07:51:01.775Z,7.94
2023-04-02T07:53:28.956Z,7.96
2023-04-02T07:55:55.997Z,8.01
2023-04-02T07:58:23.017Z,8.03
2023-04-02T08:06:50.880Z,8.07
2023-04-02T08:09:17.906Z,8.07
2023-04-02T08:11:44.929Z,8.08
2023-04-02T08:14:11.910Z,8.11
2023-04-02T08:16:38.951Z,8.13
2023-04-02T08:19:05.988Z,8.13
2023-04-02T08:21:32.976Z,8.17
2023-04-02T08:24:00.025Z,8.18
2023-04-02T08:26:33.131Z,8.19
2023-04-02T08:29:00.332Z,8.19
2023-04-02T08:31:27.458Z,8.21
2023-04-02T08:33:54.655Z,8.22
2023-04-02T08:36:21.857Z,8.25
2023-04-02T08:38:49.106Z,8.29
2023-04-02T08:41:16.168Z,8.31
2023-04-02T08:43:43.165Z,8.34
2023-04-02T08:46:10.229Z,8.36
2023-04-02T08:48:37.490Z,8.40
2023-04-02T08:51:04.566Z,8.43
2023-04-02T08:53:31.566Z,8.45
2023-04-02T08:55:58.642Z,8.49
2023-04-02T08:58:25.693Z,8.52
2023-04-02T09:00:52.830Z,8.55
2023-04-02T09:03:19.944Z,8.59
2023-04-02T09:05:46.996Z,8.61
2023-04-02T09:08:14.058Z,8.67
2023-04-02T09:10:41.089Z,8.71
2023-04-02T09:13:08.170Z,8.76
2023-04-02T09:15:35.287Z,8.80
2023-04-02T09:18:03.263Z,8.82
2023-04-02T09:20:30.317Z,8.86
2023-04-02T09:22:57.334Z,8.90
2023-04-02T09:25:24.387Z,8.93
2023-04-02T09:27:53.674Z,8.95
2023-04-02T09:30:20.667Z,8.97
2023-04-02T09:32:47.788Z,8.98
2023-04-02T09:35:24.805Z,8.99
2023-04-02T09:37:52.963Z,9.00
2023-04-02T09:40:20.012Z,9.01
2023-04-02T09:42:47.006Z,9.03
2023-04-02T09:45:14.036Z,9.03
2023-04-02T09:47:42.416Z,9.01
2023-04-02T09:50:09.597Z,9.01
2023-04-02T09:52:36.679Z,9.04
2023-04-02T09:55:03.678Z,9.05
2023-04-02T09:57:30.776Z,9.06
2023-04-02T09:59:57.819Z,9.08
2023-04-02T10:02:24.932Z,9.09
2023-04-02T10:04:51.969Z,9.09
2023-04-02T10:07:18.985Z,9.09
2023-04-02T10:09:46.029Z,9.07
2023-04-02T10:12:13.074Z,9.05
2023-04-02T10:14:40.122Z,9.04
2023-04-02T10:17:07.134Z,9.08
2023-04-02T10:19:34.144Z,9.12
2023-04-02T10:22:01.232Z,9.19
2023-04-02T10:24:28.290Z,9.24
2023-04-02T10:26:55.715Z,9.30
2023-04-02T10:29:22.721Z,9.32
2023-04-02T10:31:49.750Z,9.31
2023-04-02T10:34:16.767Z,9.32
2023-04-02T10:36:43.805Z,9.32
2023-04-02T10:39:10.814Z,9.35
2023-04-02T10:41:37.791Z,9.36
2023-04-02T10:44:16.643Z,9.39
2023-04-02T10:46:46.833Z,9.42
2023-04-02T10:49:13.921Z,9.43
2023-04-02T10:51:40.980Z,9.46
2023-04-02T10:54:08.030Z,9.48
2023-04-02T10:56:48.068Z,9.50
2023-04-02T10:59:17.485Z,9.51
2023-04-02T11:01:44.562Z,9.52
2023-04-02T11:04:12.086Z,9.54
2023-04-02T11:06:41.156Z,9.54
2023-04-02T11:09:08.197Z,9.55
2023-04-02T11:11:35.236Z,9.56
2023-04-02T11:14:02.238Z,9.57
2023-04-02T11:16:29.314Z,9.56
2023-04-02T11:18:56.379Z,9.57
2023-04-02T11:21:23.412Z,9.59
2023-04-02T11:23:50.425Z,9.60
2023-04-02T11:26:17.440Z,9.60
2023-04-02T11:28:44.424Z,9.62
2023-04-02T11:31:11.481Z,9.62
2023-04-02T11:33:41.266Z,9.64
2023-04-02T11:36:10.415Z,9.63
2023-04-02T11:38:37.530Z,9.64
2023-04-02T11:41:04.577Z,9.64
2023-04-02T11:43:31.593Z,9.65
2023-04-02T11:45:58.779Z,9.67
2023-04-02T11:48:25.911Z,9.67
2023-04-02T11:50:53.061Z,9.69
2023-04-02T11:53:20.142Z,9.70
2023-04-02T11:55:47.153Z,9.73
2023-04-02T11:58:14.159Z,9.76
2023-04-02T12:00:41.143Z,9.76
2023-04-02T12:03:08.262Z,9.78
2023-04-02T12:05:35.572Z,9.78
2023-04-02T12:08:02.728Z,9.80
2023-04-02T12:10:29.750Z,9.81
2023-04-02T12:12:56.766Z,9.82
2023-04-02T12:15:23.785Z,9.82
2023-04-02T12:17:50.849Z,9.81
2023-04-02T12:20:17.958Z,9.81
2023-04-02T12:22:45.032Z,9.81
2023-04-02T12:25:12.063Z,9.82
2023-04-02T12:27:39.219Z,9.84
2023-04-02T12:30:06.229Z,9.84
2023-04-02T12:32:33.280Z,9.85
2023-04-02T12:35:00.330Z,9.86
2023-04-02T12:37:27.320Z,9.85
2023-04-02T12:39:54.372Z,9.87
2023-04-02T12:42:21.403Z,9.86
2023-04-02T12:44:48.404Z,9.87
2023-04-02T12:47:15.400Z,9.86
2023-04-02T12:49:42.463Z,9.86
2023-04-02T12:52:09.509Z,9.88
2023-04-02T12:54:36.586Z,9.88
2023-04-02T12:57:06.625Z,9.88
2023-04-02T12:59:33.675Z,9.89
2023-04-02T13:02:02.054Z,9.89
2023-04-02T13:04:29.186Z,9.93
2023-04-02T13:06:56.179Z,9.92
2023-04-02T13:09:23.181Z,9.93
2023-04-02T13:11:50.247Z,9.93
2023-04-02T13:14:17.267Z,9.95
2023-04-02T13:16:44.275Z,9.97
2023-04-02T13:19:11.337Z,9.97
2023-04-02T13:21:38.368Z,9.98
2023-04-02T13:24:05.373Z,9.99
2023-04-02T13:26:32.370Z,9.99
2023-04-02T13:28:59.425Z,9.99
2023-04-02T13:31:26.470Z,10.01
2023-04-02T13:33:53.539Z,10.02
2023-04-02T13:36:20.528Z,10.02
2023-04-02T13:38:47.679Z,10.03
2023-04-02T13:41:14.677Z,10.03
2023-04-02T13:43:41.706Z,10.05
2023-04-02T13:46:08.748Z,10.04
2023-04-02T13:48:35.846Z,10.06
2023-04-02T13:51:02.890Z,10.08
2023-04-02T13:53:29.953Z,10.08
2023-04-02T13:55:56.961Z,10.10
2023-04-02T13:58:23.983Z,10.11
2023-04-02T14:00:51.116Z,10.13
2023-04-02T14:03:18.407Z,10.13
2023-04-02T14:05:45.419Z,10.15
2023-04-02T14:08:12.505Z,10.18
2023-04-02T14:10:39.563Z,10.21
2023-04-02T14:13:08.719Z,10.21
2023-04-02T14:15:35.873Z,10.23
2023-04-02T14:18:03.164Z,10.25
2023-04-02T14:20:30.193Z,10.24
2023-04-02T14:22:57.219Z,10.24
2023-04-02T14:25:24.262Z,10.22
2023-04-02T14:27:51.308Z,10.19
2023-04-02T14:30:19.646Z,10.16
2023-04-02T14:32:46.775Z,10.12
2023-04-02T14:35:13.805Z,10.09
2023-04-02T14:37:40.843Z,10.04
2023-04-02T14:40:07.861Z,10.00
2023-04-02T14:42:34.915Z,9.95
2023-04-02T14:45:01.943Z,9.91
2023-04-02T14:47:29.055Z,9.93
2023-04-02T14:49:56.145Z,10.01
2023-04-02T14:52:23.175Z,10.09
2023-04-02T14:54:50.211Z,10.19
2023-04-02T14:57:17.255Z,10.30
2023-04-02T14:59:44.300Z,10.42
2023-04-02T15:02:11.551Z,10.55
2023-04-02T15:04:38.553Z,10.64
2023-04-02T15:07:05.537Z,10.73
2023-04-02T15:09:32.585Z,10.84
2023-04-02T15:11:59.611Z,10.94
2023-04-02T15:14:26.674Z,11.02
2023-04-02T15:16:53.672Z,11.11
2023-04-02T15:19:20.715Z,11.19
2023-04-02T15:21:57.134Z,11.25
2023-04-02T15:24:26.529Z,11.33
2023-04-02T15:26:53.572Z,11.36
2023-04-02T15:29:28.956Z,11.41
2023-04-02T15:31:56.577Z,11.43
2023-04-02T15:34:23.641Z,11.45
2023-04-02T15:36:50.912Z,11.48
2023-04-02T15:39:17.967Z,11.48
2023-04-02T15:41:45.018Z,11.48
2023-04-02T15:44:12.117Z,11.47
2023-04-02T15:46:39.235Z,11.47
2023-04-02T15:49:06.282Z,11.49
2023-04-02T15:51:33.343Z,11.47
2023-04-02T15:54:00.413Z,11.46
2023-04-02T15:56:27.429Z,11.45
2023-04-02T15:58:54.464Z,11.42
2023-04-02T16:01:21.611Z,11.40
2023-04-02T16:03:48.786Z,11.38
2023-04-02T16:06:15.854Z,11.36
2023-04-02T16:08:42.894Z,11.33
2023-04-02T16:11:09.938Z,11.30
2023-04-02T16:13:36.978Z,11.30
2023-04-02T16:16:04.061Z,11.29
2023-04-02T16:18:31.136Z,11.26
2023-04-02T16:20:58.248Z,11.26
2023-04-02T16:23:25.261Z,11.22
2023-04-02T16:25:52.303Z,11.19
2023-04-02T16:28:19.387Z,11.15
2023-04-02T16:30:46.441Z,11.12
2023-04-02T16:33:13.502Z,11.09
2023-04-02T16:35:43.441Z,11.05
2023-04-02T16:38:10.855Z,11.05
2023-04-02T16:40:39.302Z,11.03
2023-04-02T16:43:06.369Z,11.00
2023-04-02T16:45:33.541Z,10.95
2023-04-02T16:48:00.637Z,10.90
2023-04-02T16:50:27.732Z,10.87
2023-04-02T16:52:54.785Z,10.81
2023-04-02T16:55:21.865Z,10.77
2023-04-02T16:57:48.892Z,10.75
2023-04-02T17:00:15.884Z,10.72
2023-04-02T17:02:43.052Z,10.68
2023-04-02T17:05:10.170Z,10.64
2023-04-02T17:07:37.181Z,10.61
2023-04-02T17:10:04.197Z,10.54
2023-04-02T17:12:31.237Z,10.47
2023-04-02T17:14:58.274Z,10.43
2023-04-02T17:17:25.363Z,10.38
2023-04-02T17:19:52.477Z,10.34
2023-04-02T17:22:19.612Z,10.29
2023-04-02T17:24:46.669Z,10.24
2023-04-02T17:27:13.732Z,10.20
2023-04-02T17:29:41.079Z,10.18
2023-04-02T17:32:08.112Z,10.16
2023-04-02T17:34:35.198Z,10.14
2023-04-02T17:37:02.219Z,10.11
2023-04-02T17:39:29.253Z,10.08
2023-04-02T17:41:56.316Z,10.04
2023-04-02T17:44:23.338Z,10.02
2023-04-02T17:46:50.435Z,9.97
2023-04-02T17:49:17.449Z,9.93
2023-04-02T17:51:44.488Z,9.85
2023-04-02T17:54:11.520Z,9.81
2023-04-02T17:56:39.596Z,9.77
2023-04-02T17:59:09.112Z,9.74
2023-04-02T18:01:36.147Z,9.69
2023-04-02T18:04:03.232Z,9.66
2023-04-02T18:06:30.275Z,9.62
2023-04-02T18:08:57.330Z,9.57
2023-04-02T18:11:24.375Z,9.54
2023-04-02T18:13:51.467Z,9.50
2023-04-02T18:16:18.518Z,9.48
2023-04-02T18:18:45.596Z,9.45
2023-04-02T18:21:12.750Z,9.41
2023-04-02T18:23:39.746Z,9.39
2023-04-02T18:26:06.826Z,9.34
2023-04-02T18:28:33.904Z,9.31
2023-04-02T18:31:00.951Z,9.26
2023-04-02T18:33:27.979Z,9.19
2023-04-02T18:35:55.154Z,9.14
2023-04-02T18:38:22.481Z,9.10
2023-04-02T18:40:49.489Z,9.06
2023-04-02T18:43:16.570Z,9.02
2023-04-02T18:45:43.622Z,8.97
2023-04-02T18:48:10.724Z,8.93
2023-04-02T18:50:37.919Z,8.89
2023-04-02T18:53:05.248Z,8.84
2023-04-02T18:55:32.285Z,8.80
2023-04-02T18:57:59.344Z,8.77
2023-04-02T19:00:26.398Z,8.74
2023-04-02T19:02:53.523Z,8.70
2023-04-02T19:05:20.592Z,8.66
2023-04-02T19:07:47.618Z,8.66
2023-04-02T19:10:14.670Z,8.64
2023-04-02T19:12:41.709Z,8.61
2023-04-02T19:15:08.774Z,8.58
2023-04-02T19:17:35.912Z,8.56
2023-04-02T19:20:02.985Z,8.54
2023-04-02T19:22:30.004Z,8.50
2023-04-02T19:24:57.076Z,8.49
2023-04-02T19:27:24.131Z,8.49
2023-04-02T19:29:51.163Z,8.46
2023-04-02T19:32:18.219Z,8.42
2023-04-02T19:34:45.225Z,8.36
2023-04-02T19:37:12.328Z,8.30
2023-04-02T19:39:39.346Z,8.27
2023-04-02T19:42:07.117Z,8.24
2023-04-02T19:44:34.640Z,8.18
2023-04-02T19:47:01.725Z,8.16
2023-04-02T19:49:28.740Z,8.15
2023-04-02T19:51:55.796Z,8.16
2023-04-02T19:54:22.807Z,8.13
2023-04-02T19:56:49.852Z,8.10
2023-04-02T19:59:18.391Z,8.08
2023-04-02T20:01:45.879Z,8.05
2023-04-02T20:04:12.914Z,8.04
2023-04-02T20:06:40.022Z,8.01
2023-04-02T20:09:07.013Z,7.99
2023-04-02T20:11:34.056Z,7.96
2023-04-02T20:14:01.107Z,7.92
2023-04-02T20:16:28.155Z,7.88
2023-04-02T20:18:55.243Z,7.87
2023-04-02T20:21:22.257Z,7.87
2023-04-02T20:23:49.332Z,7.88
2023-04-02T20:26:16.342Z,7.85
2023-04-02T20:28:43.379Z,7.75
2023-04-02T20:31:10.471Z,7.61
2023-04-02T20:33:37.591Z,7.42
2023-04-02T20:36:04.725Z,7.26
2023-04-02T20:38:32.171Z,7.09
2023-04-02T20:40:59.289Z,6.93
2023-04-02T20:43:26.340Z,6.76
2023-04-02T20:45:53.405Z,6.62
2023-04-02T20:48:20.475Z,6.48
2023-04-02T20:50:47.472Z,6.34
2023-04-02T20:53:14.877Z,6.21
2023-04-02T20:55:41.918Z,6.08
2023-04-02T20:58:09.022Z,5.94
2023-04-02T21:00:36.317Z,5.83
2023-04-02T21:03:03.610Z,5.71
2023-04-02T21:05:30.700Z,5.58
2023-04-02T21:07:57.786Z,5.44
2023-04-02T21:10:24.794Z,5.33
2023-04-02T21:12:51.825Z,5.20
2023-04-02T21:15:18.898Z,5.12
2023-04-02T21:17:45.987Z,5.02
2023-04-02T21:20:13.062Z,4.95
2023-04-02T21:22:40.092Z,4.88
2023-04-02T21:25:07.145Z,4.80
2023-04-02T21:27:34.163Z,4.74
2023-04-02T21:30:01.193Z,4.67
2023-04-02T21:32:28.283Z,4.62
2023-04-02T21:34:55.328Z,4.57
2023-04-02T21:37:22.366Z,4.53
2023-04-02T21:39:49.458Z,4.48
2023-04-02T21:42:16.472Z,4.44
2023-04-02T21:44:43.481Z,4.38
2023-04-02T21:47:10.493Z,4.34
2023-04-02T21:49:37.539Z,4.30
2023-04-02T21:52:04.553Z,4.25
2023-04-02T21:54:31.589Z,4.20
2023-04-02T21:56:58.618Z,4.18
2023-04-02T21:59:25.618Z,4.14
2023-04-02T22:01:52.843Z,4.09
2023-04-02T22:04:20.011Z,4.07
2023-04-02T22:06:47.078Z,4.04
2023-04-02T22:09:14.093Z,4.00
2023-04-02T22:11:41.146Z,3.96
2023-04-02T22:14:08.188Z,3.95
2023-04-02T22:16:35.301Z,3.92
2023-04-02T22:19:02.375Z,3.88
2023-04-02T22:21:29.397Z,3.86
2023-04-02T22:23:56.429Z,3.82
2023-04-02T22:26:23.513Z,3.79
2023-04-02T22:28:50.518Z,3.76
2023-04-02T22:31:17.602Z,3.74
2023-04-02T22:33:44.642Z,3.72
2023-04-02T22:36:11.735Z,3.70
2023-04-02T22:38:38.809Z,3.68
2023-04-02T22:41:05.802Z,3.67
2023-04-02T22:43:32.824Z,3.64
2023-04-02T22:45:59.912Z,3.61
2023-04-02T22:48:26.988Z,3.61
2023-04-02T22:50:54.018Z,3.58
2023-04-02T22:53:21.051Z,3.55
2023-04-02T22:55:48.081Z,3.53
2023-04-02T22:58:15.118Z,3.51
2023-04-02T23:00:42.161Z,3.49
2023-04-02T23:03:09.251Z,3.47
2023-04-02T23:05:36.294Z,3.45
2023-04-02T23:08:03.275Z,3.43
2023-04-02T23:10:30.757Z,3.41
2023-04-02T23:12:57.998Z,3.39
2023-04-02T23:15:25.033Z,3.38
2023-04-02T23:17:54.087Z,3.37
2023-04-02T23:20:21.152Z,3.35
2023-04-02T23:22:48.166Z,3.34
2023-04-02T23:25:15.164Z,3.33
2023-04-02T23:27:42.173Z,3.31
2023-04-02T23:30:09.205Z,3.30
2023-04-02T23:32:36.247Z,3.29
2023-04-02T23:35:03.276Z,3.27
2023-04-02T23:37:30.296Z,3.25
2023-04-02T23:39:57.313Z,3.24
2023-04-02T23:42:25.261Z,3.23
2023-04-02T23:44:53.531Z,3.23
2023-04-02T23:47:20.580Z,3.19
2023-04-02T23:49:47.668Z,3.20
2023-04-02T23:52:14.692Z,3.20
2023-04-02T23:54:41.709Z,3.20
2023-04-02T23:57:08.820Z,3.18
2023-04-02T23:59:36.289Z,3.18
